sensor_id;sensor_type;location;lat;lon;timestamp;temperature;humidity
44729;DHT22;30457;53.590;9.922;2022-09-21T00:02:57;13.90;51.90
44729;DHT22;30457;53.590;9.922;2022-09-21T00:07:22;13.80;52.00
44729;DHT22;30457;53.590;9.922;2022-09-21T00:11:48;13.80;52.00
44729;DHT22;30457;53.590;9.922;2022-09-21T00:16:14;13.80;52.10
44729;DHT22;30457;53.590;9.922;2022-09-21T00:20:41;13.80;52.00
44729;DHT22;30457;53.590;9.922;2022-09-21T00:25:09;13.70;52.00
44729;DHT22;30457;53.590;9.922;2022-09-21T00:29:35;13.70;52.00
44729;DHT22;30457;53.590;9.922;2022-09-21T00:34:01;13.60;52.30
44729;DHT22;30457;53.590;9.922;2022-09-21T00:38:28;13.60;52.20
44729;DHT22;30457;53.590;9.922;2022-09-21T00:42:53;13.60;52.40
44729;DHT22;30457;53.590;9.922;2022-09-21T00:47:26;13.50;52.40
44729;DHT22;30457;53.590;9.922;2022-09-21T00:51:55;13.50;52.50
44729;DHT22;30457;53.590;9.922;2022-09-21T00:56:21;13.50;52.50
44729;DHT22;30457;53.590;9.922;2022-09-21T01:00:48;13.50;52.50
44729;DHT22;30457;53.590;9.922;2022-09-21T01:05:14;13.40;52.50
44729;DHT22;30457;53.590;9.922;2022-09-21T01:09:40;13.40;52.60
44729;DHT22;30457;53.590;9.922;2022-09-21T01:24:22;13.30;53.10
44729;DHT22;30457;53.590;9.922;2022-09-21T01:33:43;13.20;52.70
44729;DHT22;30457;53.590;9.922;2022-09-21T01:38:18;13.20;52.80
44729;DHT22;30457;53.590;9.922;2022-09-21T01:42:47;13.20;53.20
44729;DHT22;30457;53.590;9.922;2022-09-21T01:47:15;13.10;53.20
44729;DHT22;30457;53.590;9.922;2022-09-21T01:51:47;13.10;53.10
44729;DHT22;30457;53.590;9.922;2022-09-21T01:56:21;13.10;53.30
44729;DHT22;30457;53.590;9.922;2022-09-21T02:00:49;13.10;53.50
44729;DHT22;30457;53.590;9.922;2022-09-21T02:05:18;13.10;53.30
44729;DHT22;30457;53.590;9.922;2022-09-21T02:09:46;13.00;53.10
44729;DHT22;30457;53.590;9.922;2022-09-21T02:14:22;13.00;53.00
44729;DHT22;30457;53.590;9.922;2022-09-21T02:19:02;13.00;53.30
44729;DHT22;30457;53.590;9.922;2022-09-21T02:23:42;12.90;53.20
44729;DHT22;30457;53.590;9.922;2022-09-21T02:33:23;12.90;53.00
44729;DHT22;30457;53.590;9.922;2022-09-21T02:37:52;12.90;53.30
44729;DHT22;30457;53.590;9.922;2022-09-21T02:42:26;12.80;53.20
44729;DHT22;30457;53.590;9.922;2022-09-21T02:47:02;12.80;53.30
44729;DHT22;30457;53.590;9.922;2022-09-21T02:51:42;12.80;53.20
44729;DHT22;30457;53.590;9.922;2022-09-21T02:56:12;12.80;53.50
44729;DHT22;30457;53.590;9.922;2022-09-21T03:00:38;12.70;53.20
44729;DHT22;30457;53.590;9.922;2022-09-21T03:05:05;12.70;53.30
44729;DHT22;30457;53.590;9.922;2022-09-21T03:09:31;12.70;54.00
44729;DHT22;30457;53.590;9.922;2022-09-21T03:13:57;12.70;53.40
44729;DHT22;30457;53.590;9.922;2022-09-21T03:18:23;12.70;53.60
44729;DHT22;30457;53.590;9.922;2022-09-21T03:22:49;12.70;53.80
44729;DHT22;30457;53.590;9.922;2022-09-21T03:27:18;12.60;53.70
44729;DHT22;30457;53.590;9.922;2022-09-21T03:31:43;12.60;54.00
44729;DHT22;30457;53.590;9.922;2022-09-21T03:36:09;12.60;53.80
44729;DHT22;30457;53.590;9.922;2022-09-21T03:40:36;12.50;53.70
44729;DHT22;30457;53.590;9.922;2022-09-21T03:45:01;12.50;53.90
44729;DHT22;30457;53.590;9.922;2022-09-21T03:49:27;12.50;54.00
44729;DHT22;30457;53.590;9.922;2022-09-21T03:53:53;12.50;54.00
44729;DHT22;30457;53.590;9.922;2022-09-21T03:58:20;12.50;54.10
44729;DHT22;30457;53.590;9.922;2022-09-21T04:02:46;12.50;54.20
44729;DHT22;30457;53.590;9.922;2022-09-21T04:07:12;12.50;54.70
44729;DHT22;30457;53.590;9.922;2022-09-21T04:11:39;12.50;55.00
44729;DHT22;30457;53.590;9.922;2022-09-21T04:16:05;12.50;55.10
44729;DHT22;30457;53.590;9.922;2022-09-21T04:20:30;12.50;55.00
44729;DHT22;30457;53.590;9.922;2022-09-21T04:24:57;12.50;55.10
44729;DHT22;30457;53.590;9.922;2022-09-21T04:29:22;12.60;55.30
44729;DHT22;30457;53.590;9.922;2022-09-21T04:33:50;12.60;55.30
44729;DHT22;30457;53.590;9.922;2022-09-21T04:38:16;12.60;55.30
44729;DHT22;30457;53.590;9.922;2022-09-21T04:42:42;12.60;55.30
44729;DHT22;30457;53.590;9.922;2022-09-21T04:47:07;12.60;55.10
44729;DHT22;30457;53.590;9.922;2022-09-21T04:51:33;12.60;54.80
44729;DHT22;30457;53.590;9.922;2022-09-21T04:55:59;12.50;54.60
44729;DHT22;30457;53.590;9.922;2022-09-21T05:00:24;12.60;54.60
44729;DHT22;30457;53.590;9.922;2022-09-21T05:04:51;12.50;54.60
44729;DHT22;30457;53.590;9.922;2022-09-21T05:09:16;12.50;54.70
44729;DHT22;30457;53.590;9.922;2022-09-21T05:14:01;12.50;54.60
44729;DHT22;30457;53.590;9.922;2022-09-21T05:18:26;12.50;54.60
44729;DHT22;30457;53.590;9.922;2022-09-21T05:22:52;12.40;54.70
44729;DHT22;30457;53.590;9.922;2022-09-21T05:27:17;12.40;54.70
44729;DHT22;30457;53.590;9.922;2022-09-21T05:31:47;12.40;54.70
44729;DHT22;30457;53.590;9.922;2022-09-21T05:36:32;12.30;54.70
44729;DHT22;30457;53.590;9.922;2022-09-21T05:41:00;12.30;54.80
44729;DHT22;30457;53.590;9.922;2022-09-21T05:45:26;12.30;54.60
44729;DHT22;30457;53.590;9.922;2022-09-21T05:50:01;12.30;54.70
44729;DHT22;30457;53.590;9.922;2022-09-21T05:54:33;12.20;55.00
44729;DHT22;30457;53.590;9.922;2022-09-21T06:03:48;12.30;55.20
44729;DHT22;30457;53.590;9.922;2022-09-21T06:08:14;12.30;55.10
44729;DHT22;30457;53.590;9.922;2022-09-21T06:12:40;12.30;55.40
44729;DHT22;30457;53.590;9.922;2022-09-21T06:17:05;12.30;55.70
44729;DHT22;30457;53.590;9.922;2022-09-21T06:21:32;12.40;56.00
44729;DHT22;30457;53.590;9.922;2022-09-21T06:25:57;12.50;56.30
44729;DHT22;30457;53.590;9.922;2022-09-21T06:30:23;12.60;56.60
44729;DHT22;30457;53.590;9.922;2022-09-21T06:34:48;12.80;56.90
44729;DHT22;30457;53.590;9.922;2022-09-21T06:39:14;12.90;57.10
44729;DHT22;30457;53.590;9.922;2022-09-21T06:43:39;13.10;57.40
44729;DHT22;30457;53.590;9.922;2022-09-21T06:48:05;13.30;57.60
44729;DHT22;30457;53.590;9.922;2022-09-21T06:52:30;13.50;57.70
44729;DHT22;30457;53.590;9.922;2022-09-21T06:56:57;13.70;57.90
44729;DHT22;30457;53.590;9.922;2022-09-21T07:01:23;13.90;58.10
44729;DHT22;30457;53.590;9.922;2022-09-21T07:05:48;14.10;58.30
44729;DHT22;30457;53.590;9.922;2022-09-21T07:10:14;14.40;58.30
44729;DHT22;30457;53.590;9.922;2022-09-21T07:14:40;14.60;58.40
44729;DHT22;30457;53.590;9.922;2022-09-21T07:19:05;14.90;58.40
44729;DHT22;30457;53.590;9.922;2022-09-21T07:23:31;15.10;58.10
44729;DHT22;30457;53.590;9.922;2022-09-21T07:27:59;15.30;57.60
44729;DHT22;30457;53.590;9.922;2022-09-21T07:32:25;15.60;57.80
44729;DHT22;30457;53.590;9.922;2022-09-21T07:36:50;15.80;57.40
44729;DHT22;30457;53.590;9.922;2022-09-21T07:41:16;16.00;57.40
44729;DHT22;30457;53.590;9.922;2022-09-21T07:45:41;16.20;57.20
44729;DHT22;30457;53.590;9.922;2022-09-21T07:50:07;16.40;57.30
44729;DHT22;30457;53.590;9.922;2022-09-21T07:54:34;16.70;57.30
44729;DHT22;30457;53.590;9.922;2022-09-21T07:59:00;17.00;56.50
44729;DHT22;30457;53.590;9.922;2022-09-21T08:03:31;17.20;56.40
44729;DHT22;30457;53.590;9.922;2022-09-21T08:07:57;17.50;56.20
44729;DHT22;30457;53.590;9.922;2022-09-21T08:12:22;17.70;55.40
44729;DHT22;30457;53.590;9.922;2022-09-21T08:16:48;17.90;55.40
44729;DHT22;30457;53.590;9.922;2022-09-21T08:21:14;18.20;55.10
44729;DHT22;30457;53.590;9.922;2022-09-21T08:25:39;18.40;54.60
44729;DHT22;30457;53.590;9.922;2022-09-21T08:30:06;18.60;54.50
44729;DHT22;30457;53.590;9.922;2022-09-21T08:34:32;18.80;54.00
44729;DHT22;30457;53.590;9.922;2022-09-21T08:38:58;19.00;53.40
44729;DHT22;30457;53.590;9.922;2022-09-21T08:47:58;19.40;53.50
44729;DHT22;30457;53.590;9.922;2022-09-21T08:52:25;19.60;52.80
44729;DHT22;30457;53.590;9.922;2022-09-21T08:56:50;19.90;52.30
44729;DHT22;30457;53.590;9.922;2022-09-21T09:01:30;20.10;51.50
44729;DHT22;30457;53.590;9.922;2022-09-21T09:06:01;20.30;50.30
44729;DHT22;30457;53.590;9.922;2022-09-21T09:20:29;20.90;48.80
44729;DHT22;30457;53.590;9.922;2022-09-21T09:24:59;21.10;48.60
44729;DHT22;30457;53.590;9.922;2022-09-21T09:34:31;21.40;47.80
44729;DHT22;30457;53.590;9.922;2022-09-21T09:39:04;21.70;47.00
44729;DHT22;30457;53.590;9.922;2022-09-21T09:43:53;21.80;47.30
44729;DHT22;30457;53.590;9.922;2022-09-21T09:48:43;21.90;46.50
44729;DHT22;30457;53.590;9.922;2022-09-21T09:53:20;22.10;46.10
44729;DHT22;30457;53.590;9.922;2022-09-21T09:57:48;22.30;46.00
44729;DHT22;30457;53.590;9.922;2022-09-21T10:06:42;22.50;44.80
44729;DHT22;30457;53.590;9.922;2022-09-21T10:11:13;22.50;44.70
44729;DHT22;30457;53.590;9.922;2022-09-21T10:15:48;22.60;44.40
44729;DHT22;30457;53.590;9.922;2022-09-21T10:20:18;22.60;44.50
44729;DHT22;30457;53.590;9.922;2022-09-21T10:24:52;22.60;43.60
44729;DHT22;30457;53.590;9.922;2022-09-21T10:34:05;22.70;43.60
44729;DHT22;30457;53.590;9.922;2022-09-21T10:38:31;22.70;43.60
44729;DHT22;30457;53.590;9.922;2022-09-21T10:42:58;22.80;43.20
44729;DHT22;30457;53.590;9.922;2022-09-21T10:47:36;22.80;42.10
44729;DHT22;30457;53.590;9.922;2022-09-21T10:52:03;22.80;41.70
44729;DHT22;30457;53.590;9.922;2022-09-21T10:56:29;22.70;41.40
44729;DHT22;30457;53.590;9.922;2022-09-21T11:00:55;22.60;41.80
44729;DHT22;30457;53.590;9.922;2022-09-21T11:05:37;22.40;41.70
44729;DHT22;30457;53.590;9.922;2022-09-21T11:10:18;22.30;41.10
44729;DHT22;30457;53.590;9.922;2022-09-21T11:14:53;22.30;41.10
44729;DHT22;30457;53.590;9.922;2022-09-21T11:19:33;22.30;40.70
44729;DHT22;30457;53.590;9.922;2022-09-21T11:33:52;22.50;39.80
44729;DHT22;30457;53.590;9.922;2022-09-21T11:38:46;22.60;39.60
44729;DHT22;30457;53.590;9.922;2022-09-21T11:58:00;23.00;38.80
44729;DHT22;30457;53.590;9.922;2022-09-21T12:07:45;23.10;39.30
44729;DHT22;30457;53.590;9.922;2022-09-21T12:21:46;23.40;38.80
44729;DHT22;30457;53.590;9.922;2022-09-21T12:26:17;23.50;37.10
44729;DHT22;30457;53.590;9.922;2022-09-21T12:30:47;23.60;37.70
44729;DHT22;30457;53.590;9.922;2022-09-21T12:35:39;23.70;37.10
44729;DHT22;30457;53.590;9.922;2022-09-21T12:40:20;23.80;37.40
44729;DHT22;30457;53.590;9.922;2022-09-21T12:44:55;23.90;37.50
44729;DHT22;30457;53.590;9.922;2022-09-21T12:49:27;24.00;36.90
44729;DHT22;30457;53.590;9.922;2022-09-21T12:53:59;24.10;35.70
44729;DHT22;30457;53.590;9.922;2022-09-21T13:03:27;24.40;36.30
44729;DHT22;30457;53.590;9.922;2022-09-21T13:08:09;24.60;35.60
44729;DHT22;30457;53.590;9.922;2022-09-21T13:12:40;24.80;34.70
44729;DHT22;30457;53.590;9.922;2022-09-21T13:17:20;25.00;34.30
44729;DHT22;30457;53.590;9.922;2022-09-21T13:26:42;25.40;34.20
44729;DHT22;30457;53.590;9.922;2022-09-21T13:44:51;26.00;33.80
44729;DHT22;30457;53.590;9.922;2022-09-21T13:53:54;26.10;32.50
44729;DHT22;30457;53.590;9.922;2022-09-21T13:58:31;26.10;32.00
44729;DHT22;30457;53.590;9.922;2022-09-21T14:03:05;26.20;32.20
44729;DHT22;30457;53.590;9.922;2022-09-21T14:07:31;26.20;32.20
44729;DHT22;30457;53.590;9.922;2022-09-21T14:12:00;26.10;31.80
44729;DHT22;30457;53.590;9.922;2022-09-21T14:21:13;25.90;32.40
44729;DHT22;30457;53.590;9.922;2022-09-21T14:25:55;25.90;30.80
44729;DHT22;30457;53.590;9.922;2022-09-21T14:30:24;25.90;31.40
44729;DHT22;30457;53.590;9.922;2022-09-21T14:34:56;25.90;31.40
44729;DHT22;30457;53.590;9.922;2022-09-21T14:39:33;25.90;31.40
44729;DHT22;30457;53.590;9.922;2022-09-21T14:44:01;25.80;30.30
44729;DHT22;30457;53.590;9.922;2022-09-21T14:53:37;25.70;30.80
44729;DHT22;30457;53.590;9.922;2022-09-21T15:03:17;25.40;30.50
44729;DHT22;30457;53.590;9.922;2022-09-21T15:13:17;24.90;30.40
44729;DHT22;30457;53.590;9.922;2022-09-21T15:17:55;24.70;30.60
44729;DHT22;30457;53.590;9.922;2022-09-21T15:22:23;24.50;30.80
44729;DHT22;30457;53.590;9.922;2022-09-21T15:26:50;24.30;31.90
44729;DHT22;30457;53.590;9.922;2022-09-21T15:31:16;24.10;31.20
44729;DHT22;30457;53.590;9.922;2022-09-21T15:35:45;24.00;31.20
44729;DHT22;30457;53.590;9.922;2022-09-21T15:40:21;23.90;32.10
44729;DHT22;30457;53.590;9.922;2022-09-21T15:44:48;23.80;32.00
44729;DHT22;30457;53.590;9.922;2022-09-21T15:49:17;23.70;33.00
44729;DHT22;30457;53.590;9.922;2022-09-21T15:53:49;23.60;33.00
44729;DHT22;30457;53.590;9.922;2022-09-21T15:58:28;23.50;33.20
44729;DHT22;30457;53.590;9.922;2022-09-21T16:02:59;23.50;33.40
44729;DHT22;30457;53.590;9.922;2022-09-21T16:07:36;23.50;33.10
44729;DHT22;30457;53.590;9.922;2022-09-21T16:21:44;23.80;33.40
44729;DHT22;30457;53.590;9.922;2022-09-21T16:26:18;23.80;33.20
44729;DHT22;30457;53.590;9.922;2022-09-21T16:30:50;23.80;33.30
44729;DHT22;30457;53.590;9.922;2022-09-21T16:35:26;23.70;33.50
44729;DHT22;30457;53.590;9.922;2022-09-21T16:39:57;23.50;33.60
44729;DHT22;30457;53.590;9.922;2022-09-21T16:44:24;23.30;33.10
44729;DHT22;30457;53.590;9.922;2022-09-21T16:48:51;23.10;34.00
44729;DHT22;30457;53.590;9.922;2022-09-21T16:53:19;22.90;34.10
44729;DHT22;30457;53.590;9.922;2022-09-21T16:57:46;22.80;34.60
44729;DHT22;30457;53.590;9.922;2022-09-21T17:02:13;22.60;35.20
44729;DHT22;30457;53.590;9.922;2022-09-21T17:06:39;22.50;35.50
44729;DHT22;30457;53.590;9.922;2022-09-21T17:11:04;22.30;35.90
44729;DHT22;30457;53.590;9.922;2022-09-21T17:15:30;22.10;36.20
44729;DHT22;30457;53.590;9.922;2022-09-21T17:19:57;22.00;36.50
44729;DHT22;30457;53.590;9.922;2022-09-21T17:24:22;21.80;36.70
44729;DHT22;30457;53.590;9.922;2022-09-21T17:28:48;21.70;37.20
44729;DHT22;30457;53.590;9.922;2022-09-21T17:33:14;21.50;37.40
44729;DHT22;30457;53.590;9.922;2022-09-21T17:37:42;21.40;37.90
44729;DHT22;30457;53.590;9.922;2022-09-21T17:42:17;21.20;38.40
44729;DHT22;30457;53.590;9.922;2022-09-21T17:46:51;21.00;39.00
44729;DHT22;30457;53.590;9.922;2022-09-21T17:51:18;20.90;38.90
44729;DHT22;30457;53.590;9.922;2022-09-21T17:56:30;20.70;38.80
44729;DHT22;30457;53.590;9.922;2022-09-21T18:01:05;20.60;39.30
44729;DHT22;30457;53.590;9.922;2022-09-21T18:05:34;20.40;39.20
44729;DHT22;30457;53.590;9.922;2022-09-21T18:09:59;20.20;39.50
44729;DHT22;30457;53.590;9.922;2022-09-21T18:19:23;20.00;40.60
44729;DHT22;30457;53.590;9.922;2022-09-21T18:28:38;19.70;40.90
44729;DHT22;30457;53.590;9.922;2022-09-21T18:38:30;19.50;41.60
44729;DHT22;30457;53.590;9.922;2022-09-21T18:43:16;19.40;41.80
44729;DHT22;30457;53.590;9.922;2022-09-21T18:57:11;19.00;42.40
44729;DHT22;30457;53.590;9.922;2022-09-21T19:01:37;18.90;42.80
44729;DHT22;30457;53.590;9.922;2022-09-21T19:11:11;18.70;43.10
44729;DHT22;30457;53.590;9.922;2022-09-21T19:20:40;18.40;43.50
44729;DHT22;30457;53.590;9.922;2022-09-21T19:25:24;18.30;44.10
44729;DHT22;30457;53.590;9.922;2022-09-21T19:30:14;18.20;44.50
44729;DHT22;30457;53.590;9.922;2022-09-21T19:34:40;18.10;44.50
44729;DHT22;30457;53.590;9.922;2022-09-21T19:39:07;18.00;44.20
44729;DHT22;30457;53.590;9.922;2022-09-21T19:43:46;18.00;44.50
44729;DHT22;30457;53.590;9.922;2022-09-21T19:48:15;17.90;44.90
44729;DHT22;30457;53.590;9.922;2022-09-21T19:52:41;17.80;44.80
44729;DHT22;30457;53.590;9.922;2022-09-21T19:57:24;17.70;44.80
44729;DHT22;30457;53.590;9.922;2022-09-21T20:02:14;17.60;45.40
44729;DHT22;30457;53.590;9.922;2022-09-21T20:06:50;17.50;45.30
44729;DHT22;30457;53.590;9.922;2022-09-21T20:11:25;17.40;45.40
44729;DHT22;30457;53.590;9.922;2022-09-21T20:16:08;17.30;45.70
44729;DHT22;30457;53.590;9.922;2022-09-21T20:20:38;17.30;45.30
44729;DHT22;30457;53.590;9.922;2022-09-21T20:29:51;17.10;46.00
44729;DHT22;30457;53.590;9.922;2022-09-21T20:34:17;17.00;45.80
44729;DHT22;30457;53.590;9.922;2022-09-21T20:38:43;16.90;46.00
44729;DHT22;30457;53.590;9.922;2022-09-21T20:43:09;16.80;46.30
44729;DHT22;30457;53.590;9.922;2022-09-21T20:47:35;16.80;46.30
44729;DHT22;30457;53.590;9.922;2022-09-21T20:52:00;16.70;46.30
44729;DHT22;30457;53.590;9.922;2022-09-21T20:56:26;16.60;46.50
44729;DHT22;30457;53.590;9.922;2022-09-21T21:00:53;16.50;46.70
44729;DHT22;30457;53.590;9.922;2022-09-21T21:05:18;16.50;46.90
44729;DHT22;30457;53.590;9.922;2022-09-21T21:09:44;16.40;47.00
44729;DHT22;30457;53.590;9.922;2022-09-21T21:14:10;16.30;47.20
44729;DHT22;30457;53.590;9.922;2022-09-21T21:18:38;16.30;47.30
44729;DHT22;30457;53.590;9.922;2022-09-21T21:23:04;16.20;47.50
44729;DHT22;30457;53.590;9.922;2022-09-21T21:27:29;16.10;47.40
44729;DHT22;30457;53.590;9.922;2022-09-21T21:31:55;16.10;47.60
44729;DHT22;30457;53.590;9.922;2022-09-21T21:36:21;16.10;47.70
44729;DHT22;30457;53.590;9.922;2022-09-21T21:40:46;16.00;47.70
44729;DHT22;30457;53.590;9.922;2022-09-21T21:45:12;16.00;48.00
44729;DHT22;30457;53.590;9.922;2022-09-21T21:49:38;15.90;48.10
44729;DHT22;30457;53.590;9.922;2022-09-21T21:54:04;15.80;48.20
44729;DHT22;30457;53.590;9.922;2022-09-21T21:58:29;15.80;48.40
44729;DHT22;30457;53.590;9.922;2022-09-21T22:02:55;15.80;48.40
44729;DHT22;30457;53.590;9.922;2022-09-21T22:07:21;15.70;48.40
44729;DHT22;30457;53.590;9.922;2022-09-21T22:11:46;15.70;48.40
44729;DHT22;30457;53.590;9.922;2022-09-21T22:16:20;15.60;48.50
44729;DHT22;30457;53.590;9.922;2022-09-21T22:20:46;15.60;48.80
44729;DHT22;30457;53.590;9.922;2022-09-21T22:25:12;15.50;48.60
44729;DHT22;30457;53.590;9.922;2022-09-21T22:29:37;15.40;48.70
44729;DHT22;30457;53.590;9.922;2022-09-21T22:34:03;15.40;49.00
44729;DHT22;30457;53.590;9.922;2022-09-21T22:38:29;15.30;48.90
44729;DHT22;30457;53.590;9.922;2022-09-21T22:42:56;15.30;48.90
44729;DHT22;30457;53.590;9.922;2022-09-21T22:47:21;15.30;49.10
44729;DHT22;30457;53.590;9.922;2022-09-21T22:51:47;15.20;49.10
44729;DHT22;30457;53.590;9.922;2022-09-21T22:56:14;15.20;49.20
44729;DHT22;30457;53.590;9.922;2022-09-21T23:00:40;15.20;49.30
44729;DHT22;30457;53.590;9.922;2022-09-21T23:05:06;15.10;49.30
44729;DHT22;30457;53.590;9.922;2022-09-21T23:09:32;15.00;49.30
44729;DHT22;30457;53.590;9.922;2022-09-21T23:13:58;15.00;49.50
44729;DHT22;30457;53.590;9.922;2022-09-21T23:18:24;15.00;49.60
44729;DHT22;30457;53.590;9.922;2022-09-21T23:22:49;14.90;49.50
44729;DHT22;30457;53.590;9.922;2022-09-21T23:27:15;14.90;49.60
44729;DHT22;30457;53.590;9.922;2022-09-21T23:31:41;14.80;49.60
44729;DHT22;30457;53.590;9.922;2022-09-21T23:36:08;14.80;50.00
44729;DHT22;30457;53.590;9.922;2022-09-21T23:40:34;14.70;50.10
44729;DHT22;30457;53.590;9.922;2022-09-21T23:45:00;14.70;50.00
44729;DHT22;30457;53.590;9.922;2022-09-21T23:49:25;14.60;49.90
44729;DHT22;30457;53.590;9.922;2022-09-21T23:53:51;14.60;50.10
44729;DHT22;30457;53.590;9.922;2022-09-21T23:58:17;14.50;50.00
